createdAt,value
2018-04-02T00:00:37.199Z,7.70
2018-04-02T00:03:04.625Z,7.60
2018-04-02T00:05:32.093Z,7.60
2018-04-02T00:07:59.508Z,7.50
2018-04-02T00:10:26.945Z,7.50
2018-04-02T00:12:54.395Z,7.40
2018-04-02T00:15:21.868Z,7.40
2018-04-02T00:17:49.332Z,7.30
2018-04-02T00:20:17.568Z,7.30
2018-04-02T00:22:44.993Z,7.20
2018-04-02T00:25:12.419Z,7.20
2018-04-02T00:27:39.928Z,7.10
2018-04-02T00:30:07.355Z,7.10
2018-04-02T00:32:34.864Z,7.00
2018-04-02T00:35:02.299Z,7.00
2018-04-02T00:37:29.720Z,6.90
2018-04-02T00:39:57.156Z,6.90
2018-04-02T00:42:25.360Z,6.90
2018-04-02T00:44:52.788Z,6.90
2018-04-02T00:47:20.307Z,6.90
2018-04-02T00:49:47.732Z,6.90
2018-04-02T00:52:15.920Z,6.90
2018-04-02T00:54:43.352Z,6.90
2018-04-02T00:57:10.772Z,6.90
2018-04-02T00:59:38.980Z,6.90
2018-04-02T01:02:06.399Z,6.90
2018-04-02T01:04:33.831Z,6.90
2018-04-02T01:07:01.288Z,6.90
2018-04-02T01:09:28.711Z,6.90
2018-04-02T01:11:56.130Z,6.90
2018-04-02T01:14:23.596Z,6.90
2018-04-02T01:16:51.072Z,6.90
2018-04-02T01:19:18.503Z,6.90
2018-04-02T01:21:46.729Z,6.90
2018-04-02T01:24:14.150Z,6.90
2018-04-02T01:26:41.571Z,7.00
2018-04-02T01:29:09.539Z,7.00
2018-04-02T01:31:36.970Z,7.00
2018-04-02T01:34:04.488Z,7.00
2018-04-02T01:36:31.903Z,7.00
2018-04-02T01:39:00.140Z,6.90
2018-04-02T01:41:28.330Z,6.90
2018-04-02T01:43:55.796Z,6.90
2018-04-02T01:46:23.220Z,6.80
2018-04-02T01:48:50.635Z,6.90
2018-04-02T01:51:18.064Z,6.80
2018-04-02T01:53:45.577Z,6.80
2018-04-02T01:56:13.043Z,6.80
2018-04-02T01:58:40.512Z,6.80
2018-04-02T02:01:07.944Z,6.80
2018-04-02T02:03:35.360Z,6.80
2018-04-02T02:06:02.787Z,6.70
2018-04-02T02:08:30.980Z,6.70
2018-04-02T02:10:59.176Z,6.70
2018-04-02T02:13:27.363Z,6.70
2018-04-02T02:15:55.556Z,6.60
2018-04-02T02:18:22.979Z,6.60
2018-04-02T02:20:50.722Z,6.50
2018-04-02T02:23:18.145Z,6.50
2018-04-02T02:25:45.656Z,6.50
2018-04-02T02:28:13.124Z,6.40
2018-04-02T02:30:40.598Z,6.40
2018-04-02T02:33:08.065Z,6.40
2018-04-02T02:35:35.496Z,6.40
2018-04-02T02:38:02.911Z,6.40
2018-04-02T02:40:30.372Z,6.40
2018-04-02T02:42:57.791Z,6.40
2018-04-02T02:45:25.220Z,6.30
2018-04-02T02:47:52.640Z,6.30
2018-04-02T02:50:20.072Z,6.30
2018-04-02T02:52:47.497Z,6.20
2018-04-02T02:55:15.687Z,6.20
2018-04-02T02:57:43.108Z,6.20
2018-04-02T03:00:10.648Z,6.20
2018-04-02T03:02:38.117Z,6.20
2018-04-02T03:05:05.560Z,6.10
2018-04-02T03:07:33.739Z,6.00
2018-04-02T03:10:01.937Z,6.00
2018-04-02T03:12:30.140Z,6.00
2018-04-02T03:14:57.563Z,5.90
2018-04-02T03:17:24.988Z,5.90
2018-04-02T03:19:52.414Z,5.90
2018-04-02T03:22:19.831Z,5.90
2018-04-02T03:24:47.260Z,5.80
2018-04-02T03:27:15.469Z,5.80
2018-04-02T03:29:42.900Z,5.70
2018-04-02T03:32:10.320Z,5.70
2018-04-02T03:34:37.747Z,5.70
2018-04-02T03:37:05.948Z,5.60
2018-04-02T03:39:34.139Z,5.60
2018-04-02T03:42:01.626Z,5.60
2018-04-02T03:44:29.093Z,5.60
2018-04-02T03:46:57.281Z,5.50
2018-04-02T03:49:24.748Z,5.50
2018-04-02T03:51:52.178Z,5.50
2018-04-02T03:54:19.592Z,5.50
2018-04-02T03:56:47.024Z,5.50
2018-04-02T03:59:15.217Z,5.50
2018-04-02T04:01:43.433Z,5.50
2018-04-02T04:04:10.853Z,5.50
2018-04-02T04:06:38.283Z,5.50
2018-04-02T04:09:05.699Z,5.60
2018-04-02T04:11:33.119Z,5.60
2018-04-02T04:14:00.548Z,5.60
2018-04-02T04:16:28.740Z,5.60
2018-04-02T04:18:56.956Z,5.50
2018-04-02T04:21:24.379Z,5.50
2018-04-02T04:23:51.888Z,5.50
2018-04-02T04:26:19.364Z,5.50
2018-04-02T04:28:46.788Z,5.50
2018-04-02T04:31:14.304Z,5.40
2018-04-02T04:33:41.719Z,5.40
2018-04-02T04:36:09.144Z,5.40
2018-04-02T04:38:36.667Z,5.30
2018-04-02T04:41:04.181Z,5.30
2018-04-02T04:43:31.652Z,5.30
2018-04-02T04:45:59.080Z,5.30
2018-04-02T04:48:26.495Z,5.30
2018-04-02T04:50:53.927Z,5.20
2018-04-02T04:53:22.126Z,5.10
2018-04-02T04:55:50.304Z,5.10
2018-04-02T04:58:18.616Z,5.10
2018-04-02T05:00:46.084Z,5.10
2018-04-02T05:03:13.564Z,5.10
2018-04-02T05:05:40.993Z,5.00
2018-04-02T05:08:09.175Z,5.10
2018-04-02T05:10:36.603Z,5.10
2018-04-02T05:13:04.024Z,5.10
2018-04-02T05:15:32.236Z,5.10
2018-04-02T05:17:59.651Z,5.00
2018-04-02T05:20:27.176Z,5.00
2018-04-02T05:22:54.600Z,5.00
2018-04-02T05:25:22.027Z,5.00
2018-04-02T05:27:49.484Z,5.00
2018-04-02T05:30:16.916Z,5.00
2018-04-02T05:32:44.423Z,5.00
2018-04-02T05:35:11.857Z,5.00
2018-04-02T05:37:39.364Z,5.00
2018-04-02T05:40:06.792Z,5.00
2018-04-02T05:42:34.305Z,5.00
2018-04-02T05:45:01.774Z,5.00
2018-04-02T05:47:29.252Z,5.10
2018-04-02T05:49:56.718Z,5.10
2018-04-02T05:52:24.138Z,5.10
2018-04-02T05:54:51.656Z,5.10
2018-04-02T05:57:19.132Z,5.20
2018-04-02T05:59:46.560Z,5.20
2018-04-02T06:02:14.070Z,5.30
2018-04-02T06:04:41.492Z,5.30
2018-04-02T06:07:08.919Z,5.30
2018-04-02T06:09:36.384Z,5.40
2018-04-02T06:12:03.807Z,5.50
2018-04-02T06:14:32.032Z,5.60
2018-04-02T06:16:59.518Z,5.60
2018-04-02T06:19:26.919Z,5.70
2018-04-02T06:21:54.445Z,5.80
2018-04-02T06:24:21.904Z,5.90
2018-04-02T06:26:49.376Z,6.00
2018-04-02T06:29:16.852Z,6.20
2018-04-02T06:31:44.283Z,6.20
2018-04-02T06:34:12.472Z,6.40
2018-04-02T06:36:40.663Z,6.40
2018-04-02T06:39:08.885Z,6.40
2018-04-02T06:41:36.308Z,6.40
2018-04-02T06:44:03.816Z,6.50
2018-04-02T06:46:31.292Z,6.50
2018-04-02T06:48:58.760Z,6.60
2018-04-02T06:51:26.233Z,6.70
2018-04-02T06:53:53.697Z,6.80
2018-04-02T06:56:21.168Z,6.90
2018-04-02T06:58:48.593Z,7.00
2018-04-02T07:01:16.021Z,7.10
2018-04-02T07:03:43.439Z,7.10
2018-04-02T07:06:11.641Z,7.10
2018-04-02T07:08:40.944Z,7.20
2018-04-02T07:11:09.141Z,7.20
2018-04-02T07:13:37.344Z,7.30
2018-04-02T07:16:04.772Z,7.30
2018-04-02T07:18:32.191Z,7.30
2018-04-02T07:20:59.618Z,7.40
2018-04-02T07:23:27.841Z,7.50
2018-04-02T07:25:56.007Z,7.60
2018-04-02T07:28:24.224Z,7.60
2018-04-02T07:30:51.692Z,7.60
2018-04-02T07:33:19.107Z,7.70
2018-04-02T07:35:46.535Z,7.80
2018-04-02T07:38:13.960Z,7.90
2018-04-02T07:40:42.158Z,8.00
2018-04-02T07:43:10.343Z,8.00
2018-04-02T07:45:38.552Z,8.10
2018-04-02T07:50:39.778Z,8.20
2018-04-02T07:53:07.160Z,8.20
2018-04-02T07:55:34.753Z,8.30
2018-04-02T07:58:02.104Z,8.30
2018-04-02T08:00:29.572Z,8.30
2018-04-02T08:02:57.025Z,8.40
2018-04-02T08:05:24.435Z,8.40
2018-04-02T08:07:52.615Z,8.40
2018-04-02T08:10:20.067Z,8.40
2018-04-02T08:12:47.499Z,8.40
2018-04-02T08:15:14.917Z,8.40
2018-04-02T08:17:43.135Z,8.60
2018-04-02T08:20:10.560Z,8.60
2018-04-02T08:22:37.988Z,8.70
2018-04-02T08:25:05.412Z,8.80
2018-04-02T08:27:33.635Z,9.10
2018-04-02T08:30:01.101Z,9.10
2018-04-02T08:32:28.543Z,9.20
2018-04-02T08:34:56.040Z,9.30
2018-04-02T08:37:23.472Z,9.40
2018-04-02T08:39:50.983Z,9.30
2018-04-02T08:42:18.406Z,9.40
2018-04-02T08:44:45.828Z,9.60
2018-04-02T08:47:13.256Z,9.80
2018-04-02T08:49:40.775Z,10.00
2018-04-02T08:52:08.207Z,10.20
2018-04-02T08:54:36.395Z,10.30
2018-04-02T08:57:04.595Z,10.40
2018-04-02T08:59:32.079Z,10.40
2018-04-02T09:01:59.512Z,10.50
2018-04-02T09:04:27.704Z,10.60
2018-04-02T09:06:55.903Z,10.80
2018-04-02T09:09:23.331Z,10.70
2018-04-02T09:11:50.864Z,10.80
2018-04-02T09:14:18.319Z,10.90
2018-04-02T09:16:45.805Z,11.00
2018-04-02T09:19:13.260Z,11.20
2018-04-02T09:21:40.736Z,11.30
2018-04-02T09:24:08.164Z,11.50
2018-04-02T09:26:35.595Z,11.60
2018-04-02T09:29:03.016Z,11.70
2018-04-02T09:31:31.207Z,11.90
2018-04-02T09:33:59.410Z,12.00
2018-04-02T09:36:26.893Z,12.00
2018-04-02T09:38:54.317Z,12.20
2018-04-02T09:41:22.512Z,12.70
2018-04-02T09:43:50.017Z,12.60
2018-04-02T09:46:17.486Z,12.90
2018-04-02T09:48:44.956Z,13.10
2018-04-02T09:51:12.380Z,13.20
2018-04-02T09:53:40.620Z,13.40
2018-04-02T09:56:08.091Z,13.40
2018-04-02T09:58:35.576Z,13.50
2018-04-02T10:01:02.999Z,13.50
2018-04-02T10:03:36.886Z,13.80
2018-04-02T10:06:04.304Z,13.80
2018-04-02T10:08:31.772Z,14.00
2018-04-02T10:10:59.244Z,14.20
2018-04-02T10:13:26.723Z,14.20
2018-04-02T10:15:54.144Z,14.30
2018-04-02T10:18:21.573Z,14.50
2018-04-02T10:20:48.990Z,14.70
2018-04-02T10:23:17.212Z,15.10
2018-04-02T10:25:44.679Z,15.00
2018-04-02T10:28:12.181Z,15.30
2018-04-02T10:30:39.572Z,15.20
2018-04-02T10:33:07.006Z,14.90
2018-04-02T10:35:34.429Z,14.90
2018-04-02T10:38:02.648Z,15.10
2018-04-02T10:40:30.118Z,15.10
2018-04-02T10:42:57.536Z,14.80
2018-04-02T10:45:25.064Z,14.70
2018-04-02T10:47:52.492Z,15.00
2018-04-02T10:50:20.708Z,15.50
2018-04-02T10:52:48.140Z,15.50
2018-04-02T10:55:15.561Z,15.80
2018-04-02T10:57:42.992Z,16.20
2018-04-02T11:00:11.176Z,17.00
2018-04-02T11:02:39.383Z,17.40
2018-04-02T11:05:06.803Z,17.40
2018-04-02T11:07:34.329Z,17.50
2018-04-02T11:10:01.744Z,17.70
2018-04-02T11:12:29.292Z,18.10
2018-04-02T11:14:56.741Z,18.50
2018-04-02T11:17:24.208Z,18.60
2018-04-02T11:19:51.688Z,18.80
2018-04-02T11:22:19.160Z,19.00
2018-04-02T11:24:46.624Z,19.20
2018-04-02T11:27:14.085Z,19.20
2018-04-02T11:29:41.556Z,19.20
2018-04-02T11:32:08.979Z,19.40
2018-04-02T11:34:36.396Z,19.40
2018-04-02T11:37:03.868Z,19.50
2018-04-02T11:39:31.280Z,19.60
2018-04-02T11:41:58.704Z,20.00
2018-04-02T11:44:26.122Z,20.40
2018-04-02T11:46:54.360Z,20.90
2018-04-02T11:49:21.832Z,20.90
2018-04-02T11:51:49.272Z,21.30
2018-04-02T11:54:17.456Z,21.40
2018-04-02T11:56:45.720Z,21.70
2018-04-02T11:59:13.140Z,21.70
2018-04-02T12:01:40.555Z,21.60
2018-04-02T12:04:09.491Z,21.70
2018-04-02T12:06:37.673Z,21.40
2018-04-02T12:09:05.868Z,21.50
2018-04-02T12:11:34.056Z,21.40
2018-04-02T12:14:02.244Z,20.90
2018-04-02T12:16:30.428Z,20.90
2018-04-02T12:18:58.640Z,20.80
2018-04-02T12:21:26.043Z,20.80
2018-04-02T12:23:53.576Z,20.80
2018-04-02T12:26:20.997Z,20.90
2018-04-02T12:28:48.427Z,21.00
2018-04-02T12:31:15.852Z,21.00
2018-04-02T12:33:44.076Z,20.90
2018-04-02T12:36:11.500Z,20.90
2018-04-02T12:38:39.950Z,21.00
2018-04-02T12:41:07.355Z,21.10
2018-04-02T12:43:34.788Z,21.40
2018-04-02T12:46:02.244Z,21.60
2018-04-02T12:48:29.765Z,21.50
2018-04-02T12:50:57.182Z,21.40
2018-04-02T12:53:24.608Z,21.50
2018-04-02T12:55:52.124Z,21.60
2018-04-02T12:58:19.694Z,21.60
2018-04-02T13:00:47.160Z,21.40
2018-04-02T13:03:14.583Z,21.20
2018-04-02T13:05:42.109Z,21.00
2018-04-02T13:08:09.532Z,20.90
2018-04-02T13:10:37.095Z,20.70
2018-04-02T13:13:04.483Z,20.90
2018-04-02T13:15:32.674Z,21.30
2018-04-02T13:18:01.807Z,21.30
2018-04-02T13:20:29.281Z,21.20
2018-04-02T13:22:56.744Z,20.90
2018-04-02T13:25:24.156Z,20.60
2018-04-02T13:27:51.690Z,20.50
2018-04-02T13:30:19.108Z,20.30
2018-04-02T13:32:47.291Z,19.90
2018-04-02T13:35:14.716Z,19.80
2018-04-02T13:37:42.135Z,19.50
2018-04-02T13:40:09.556Z,19.50
2018-04-02T13:42:37.020Z,19.50
2018-04-02T13:45:07.953Z,19.70
2018-04-02T13:47:36.139Z,19.70
2018-04-02T13:50:04.343Z,19.60
2018-04-02T13:52:31.782Z,19.60
2018-04-02T13:54:59.292Z,19.30
2018-04-02T13:57:26.753Z,18.90
2018-04-02T13:59:54.180Z,18.70
2018-04-02T14:02:22.416Z,18.40
2018-04-02T14:04:49.882Z,18.30
2018-04-02T14:07:17.307Z,18.20
2018-04-02T14:09:44.728Z,18.10
2018-04-02T14:12:12.152Z,18.10
2018-04-02T14:14:40.375Z,18.00
2018-04-02T14:17:07.848Z,18.00
2018-04-02T14:19:35.280Z,18.10
2018-04-02T14:22:02.696Z,18.10
2018-04-02T14:24:30.152Z,18.00
2018-04-02T14:26:57.572Z,17.90
2018-04-02T14:29:25.000Z,17.90
2018-04-02T14:31:52.464Z,17.90
2018-04-02T14:34:19.888Z,17.90
2018-04-02T14:36:48.112Z,17.90
2018-04-02T14:39:15.589Z,17.90
2018-04-02T14:41:43.055Z,17.80
2018-04-02T14:44:10.484Z,17.80
2018-04-02T14:46:37.972Z,17.80
2018-04-02T14:49:06.180Z,17.60
2018-04-02T14:51:33.658Z,17.50
2018-04-02T14:54:01.080Z,17.50
2018-04-02T14:56:28.510Z,17.40
2018-04-02T14:58:55.956Z,17.30
2018-04-02T15:01:23.444Z,17.20
2018-04-02T15:03:50.868Z,17.10
2018-04-02T15:06:19.087Z,17.60
2018-04-02T15:08:46.513Z,17.60
2018-04-02T15:11:14.020Z,17.80
2018-04-02T15:13:41.448Z,17.90
2018-04-02T15:16:08.881Z,17.80
2018-04-02T15:18:36.333Z,17.60
2018-04-02T15:21:03.805Z,17.40
2018-04-02T15:23:31.236Z,17.30
2018-04-02T15:25:58.656Z,17.20
2018-04-02T15:28:26.088Z,17.10
2018-04-02T15:30:54.278Z,16.70
2018-04-02T15:33:22.486Z,16.60
2018-04-02T15:35:49.936Z,16.60
2018-04-02T15:38:18.127Z,16.50
2018-04-02T15:40:45.547Z,16.50
2018-04-02T15:43:13.079Z,16.40
2018-04-02T15:45:40.652Z,16.50
2018-04-02T15:48:08.840Z,16.40
2018-04-02T15:50:36.312Z,16.40
2018-04-02T15:53:03.740Z,16.40
2018-04-02T15:55:31.230Z,16.40
2018-04-02T15:57:59.408Z,16.30
2018-04-02T16:00:27.643Z,16.30
2018-04-02T16:02:55.087Z,16.30
2018-04-02T16:05:22.562Z,16.30
2018-04-02T16:07:50.724Z,16.30
2018-04-02T16:10:18.911Z,16.30
2018-04-02T16:12:47.105Z,16.30
2018-04-02T16:15:15.293Z,16.30
2018-04-02T16:17:42.780Z,16.30
2018-04-02T16:20:10.244Z,16.30
2018-04-02T16:22:37.720Z,16.30
2018-04-02T16:25:05.204Z,16.20
2018-04-02T16:27:32.620Z,16.20
2018-04-02T16:30:00.132Z,16.10
2018-04-02T16:32:27.551Z,16.10
2018-04-02T16:34:55.079Z,16.10
2018-04-02T16:37:22.484Z,15.90
2018-04-02T16:39:50.008Z,15.80
2018-04-02T16:42:17.442Z,15.80
2018-04-02T16:44:44.860Z,15.70
2018-04-02T16:47:12.467Z,15.60
2018-04-02T16:49:39.868Z,15.60
2018-04-02T16:52:08.080Z,15.50
2018-04-02T16:54:35.491Z,15.50
2018-04-02T16:57:03.022Z,15.50
2018-04-02T16:59:30.436Z,15.40
2018-04-02T17:01:58.668Z,15.40
2018-04-02T17:04:26.087Z,15.40
2018-04-02T17:06:54.435Z,15.40
2018-04-02T17:09:21.856Z,15.40
2018-04-02T17:11:49.383Z,15.30
2018-04-02T17:14:16.836Z,15.30
2018-04-02T17:16:44.328Z,15.30
2018-04-02T17:19:11.743Z,15.30
2018-04-02T17:21:40.012Z,15.10
2018-04-02T17:24:07.536Z,15.10
2018-04-02T17:26:35.018Z,15.10
2018-04-02T17:29:02.444Z,15.10
2018-04-02T17:31:29.994Z,15.10
2018-04-02T17:33:57.371Z,15.00
2018-04-02T17:36:24.884Z,15.00
2018-04-02T17:38:52.324Z,15.00
2018-04-02T17:41:19.731Z,15.00
2018-04-02T17:43:47.156Z,14.90
2018-04-02T17:46:15.336Z,14.90
2018-04-02T17:48:42.764Z,14.90
2018-04-02T17:51:10.221Z,14.90
2018-04-02T17:53:37.701Z,14.80
2018-04-02T17:56:05.242Z,14.90
2018-04-02T17:58:32.592Z,14.80
2018-04-02T18:01:00.013Z,14.80
2018-04-02T18:03:27.432Z,14.70
2018-04-02T18:05:55.657Z,14.50
2018-04-02T18:08:23.088Z,14.50
2018-04-02T18:10:51.337Z,14.30
2018-04-02T18:13:18.772Z,14.30
2018-04-02T18:15:46.244Z,14.30
2018-04-02T18:18:13.721Z,14.30
2018-04-02T18:20:41.184Z,14.20
2018-04-02T18:23:08.656Z,14.20
2018-04-02T18:25:36.083Z,14.10
2018-04-02T18:28:04.276Z,14.00
2018-04-02T18:30:32.483Z,14.00
2018-04-02T18:33:00.664Z,14.00
2018-04-02T18:35:28.879Z,14.00
2018-04-02T18:37:56.344Z,14.00
2018-04-02T18:40:23.771Z,14.00
2018-04-02T18:42:51.188Z,14.00
2018-04-02T18:45:18.624Z,14.00
2018-04-02T18:47:46.799Z,13.90
2018-04-02T18:50:14.992Z,13.90
2018-04-02T18:52:43.180Z,13.80
2018-04-02T18:55:11.380Z,13.80
2018-04-02T18:57:39.560Z,13.70
2018-04-02T19:00:07.780Z,13.70
2018-04-02T19:02:35.191Z,13.70
2018-04-02T19:05:02.616Z,13.70
2018-04-02T19:07:30.079Z,13.70
2018-04-02T19:09:57.504Z,13.70
2018-04-02T19:12:25.020Z,13.70
2018-04-02T19:14:52.443Z,13.70
2018-04-02T19:17:20.676Z,13.70
2018-04-02T19:19:48.153Z,13.70
2018-04-02T19:22:15.564Z,13.70
2018-04-02T19:24:43.084Z,13.70
2018-04-02T19:27:10.503Z,13.70
2018-04-02T19:29:37.929Z,13.60
2018-04-02T19:32:05.343Z,13.60
2018-04-02T19:34:32.868Z,13.60
2018-04-02T19:37:00.288Z,13.50
2018-04-02T19:39:27.712Z,13.40
2018-04-02T19:41:55.176Z,13.40
2018-04-02T19:44:22.613Z,13.40
2018-04-02T19:46:50.805Z,13.40
2018-04-02T19:49:18.988Z,13.40
2018-04-02T19:51:47.171Z,13.40
2018-04-02T19:54:15.384Z,13.30
2018-04-02T19:56:42.864Z,13.30
2018-04-02T19:59:10.288Z,13.30
2018-04-02T20:01:37.705Z,13.20
2018-04-02T20:04:05.136Z,13.20
2018-04-02T20:06:33.316Z,13.10
2018-04-02T20:09:01.508Z,13.00
2018-04-02T20:11:29.695Z,12.90
2018-04-02T20:13:57.900Z,12.80
2018-04-02T20:16:26.083Z,12.70
2018-04-02T20:18:54.300Z,12.60
2018-04-02T20:21:21.728Z,12.60
2018-04-02T20:23:50.044Z,12.50
2018-04-02T20:26:17.467Z,12.50
2018-04-02T20:28:45.943Z,12.40
2018-04-02T20:31:13.372Z,12.40
2018-04-02T20:33:40.844Z,12.30
2018-04-02T20:36:08.276Z,12.30
2018-04-02T20:38:35.711Z,12.20
2018-04-02T20:41:03.156Z,12.20
2018-04-02T20:43:30.628Z,12.20
2018-04-02T20:45:58.056Z,12.20
2018-04-02T20:48:25.560Z,12.20
2018-04-02T20:50:52.983Z,12.20
2018-04-02T20:53:20.404Z,12.10
2018-04-02T20:55:47.836Z,12.10
2018-04-02T20:58:15.248Z,12.00
2018-04-02T21:00:42.681Z,12.00
2018-04-02T21:03:10.892Z,12.00
2018-04-02T21:05:38.320Z,11.90
2018-04-02T21:08:06.597Z,11.90
2018-04-02T21:10:34.020Z,11.90
2018-04-02T21:13:01.443Z,11.90
2018-04-02T21:15:29.676Z,11.90
2018-04-02T21:17:57.145Z,11.90
2018-04-02T21:20:24.620Z,11.90
2018-04-02T21:22:52.043Z,11.80
2018-04-02T21:25:19.558Z,11.80
2018-04-02T21:27:47.023Z,11.70
2018-04-02T21:30:14.445Z,11.70
2018-04-02T21:32:41.968Z,11.60
2018-04-02T21:35:09.404Z,11.60
2018-04-02T21:37:37.588Z,11.60
2018-04-02T21:40:05.773Z,11.50
2018-04-02T21:42:34.005Z,11.50
2018-04-02T21:45:01.424Z,11.50
2018-04-02T21:47:29.808Z,11.40
2018-04-02T21:49:57.211Z,11.40
2018-04-02T21:52:24.692Z,11.30
2018-04-02T21:54:52.167Z,11.30
2018-04-02T21:57:19.592Z,11.20
2018-04-02T21:59:47.016Z,11.20
2018-04-02T22:02:14.443Z,11.20
2018-04-02T22:04:42.672Z,11.30
2018-04-02T22:07:10.084Z,11.20
2018-04-02T22:09:38.284Z,11.30
2018-04-02T22:12:06.500Z,11.30
2018-04-02T22:14:33.931Z,11.20
2018-04-02T22:17:01.361Z,11.30
2018-04-02T22:19:28.783Z,11.30
2018-04-02T22:21:56.968Z,11.20
2018-04-02T22:24:25.193Z,11.30
2018-04-02T22:26:52.666Z,11.20
2018-04-02T22:29:20.875Z,11.30
2018-04-02T22:31:48.314Z,11.20
2018-04-02T22:34:15.727Z,11.20
2018-04-02T22:36:43.155Z,11.10
2018-04-02T22:39:10.576Z,11.10
2018-04-02T22:41:38.000Z,11.10
2018-04-02T22:44:05.464Z,11.10
2018-04-02T22:46:32.928Z,11.00
2018-04-02T22:49:00.400Z,11.00
2018-04-02T22:51:27.868Z,11.00
2018-04-02T22:53:55.292Z,11.00
2018-04-02T22:56:22.804Z,10.90
2018-04-02T22:58:50.411Z,10.90
2018-04-02T23:01:17.955Z,10.90
2018-04-02T23:03:45.373Z,10.90
2018-04-02T23:06:12.890Z,10.90
2018-04-02T23:08:41.227Z,10.90
2018-04-02T23:11:08.643Z,10.90
2018-04-02T23:13:36.120Z,10.90
2018-04-02T23:16:03.544Z,10.90
2018-04-02T23:18:30.964Z,10.90
2018-04-02T23:20:58.392Z,10.90
2018-04-02T23:23:26.622Z,10.90
2018-04-02T23:25:54.088Z,10.90
2018-04-02T23:28:21.521Z,10.90
2018-04-02T23:30:49.706Z,10.90
2018-04-02T23:33:17.896Z,10.90
2018-04-02T23:35:46.111Z,10.90
2018-04-02T23:38:13.579Z,10.90
2018-04-02T23:40:41.048Z,10.90
2018-04-02T23:43:08.464Z,10.90
2018-04-02T23:45:35.896Z,10.90
2018-04-02T23:48:03.316Z,10.90
2018-04-02T23:50:30.753Z,10.90
2018-04-02T23:52:58.166Z,10.90
2018-04-02T23:55:26.360Z,11.00
2018-04-02T23:57:54.572Z,11.00
